Time;durP1;ratioP1;P1;durP2;ratioP2;P2;SDS_P1;SDS_P2;PMS_P1;PMS_P2;Temp;Humidity;BMP_temperature;BMP_pressure;BME280_temperature;BME280_humidity;BME280_pressure;Samples;Min_cycle;Max_cycle;Signal;HPM_P1;HPM_P2
2021/03/15 00:01:42;;;;;;;2.65;1.38;;;8.70;67.70;;;;;;6260222;28;20041;-82
2021/03/15 00:04:43;;;;;;;3.50;1.15;;;8.70;67.60;;;;;;6275661;28;20033;-84
2021/03/15 00:07:45;;;;;;;2.78;0.98;;;8.70;67.50;;;;;;6258055;28;20111;-84
2021/03/15 00:10:47;;;;;;;1.50;0.80;;;8.70;67.70;;;;;;6265186;28;20533;-84
2021/03/15 00:13:48;;;;;;;3.83;0.90;;;8.70;67.70;;;;;;6280212;28;20380;-82
2021/03/15 00:16:49;;;;;;;1.10;0.85;;;8.70;67.40;;;;;;6275481;28;20052;-82
2021/03/15 00:19:51;;;;;;;0.95;0.88;;;8.70;67.30;;;;;;6278432;28;20033;-83
2021/03/15 00:22:52;;;;;;;2.53;0.98;;;8.70;67.40;;;;;;6279947;28;20025;-83
2021/03/15 00:25:54;;;;;;;2.70;1.10;;;8.60;67.30;;;;;;6274333;28;20479;-82
2021/03/15 00:28:55;;;;;;;1.88;0.80;;;8.60;67.20;;;;;;6274306;28;20043;-81
2021/03/15 00:31:56;;;;;;;0.95;0.80;;;8.50;67.20;;;;;;6274184;28;20044;-82
2021/03/15 00:34:57;;;;;;;1.85;1.38;;;8.60;67.40;;;;;;6274023;28;20176;-82
2021/03/15 00:37:58;;;;;;;1.13;0.85;;;8.50;67.40;;;;;;6275299;28;20064;-81
2021/03/15 00:41:01;;;;;;;0.90;0.70;;;8.50;67.40;;;;;;6273520;28;20056;-81
2021/03/15 00:44:02;;;;;;;2.97;0.82;;;8.50;67.10;;;;;;6276736;28;20120;-82
2021/03/15 00:47:04;;;;;;;1.63;0.70;;;8.50;67.10;;;;;;6289151;28;20029;-83
2021/03/15 00:50:08;;;;;;;0.80;0.70;;;8.40;66.80;;;;;;6272533;28;20347;-82
2021/03/15 00:53:10;;;;;;;2.65;1.08;;;8.40;67.50;;;;;;6274098;28;20045;-81
2021/03/15 00:56:11;;;;;;;2.03;0.75;;;8.40;66.80;;;;;;6275985;28;20064;-84
2021/03/15 00:59:12;;;;;;;1.15;0.90;;;8.40;67.00;;;;;;6271707;28;20048;-82
2021/03/15 01:02:17;;;;;;;1.80;0.80;;;8.40;67.00;;;;;;6253713;28;20083;-82
2021/03/15 01:05:29;;;;;;;1.95;0.85;;;8.40;67.00;;;;;;6263302;28;20053;-82
2021/03/15 01:08:30;;;;;;;3.72;1.17;;;8.40;67.00;;;;;;6271373;28;20029;-83
2021/03/15 01:11:33;;;;;;;1.58;0.80;;;8.40;67.00;;;;;;6269390;28;20126;-82
2021/03/15 01:14:38;;;;;;;0.88;0.68;;;8.50;66.80;;;;;;6273169;28;20052;-82
2021/03/15 01:17:44;;;;;;;1.25;0.85;;;8.50;66.60;;;;;;6284423;28;20064;-82
2021/03/15 01:20:47;;;;;;;1.70;0.68;;;8.50;66.60;;;;;;6269826;28;20029;-82
2021/03/15 01:23:48;;;;;;;1.35;0.82;;;8.50;66.70;;;;;;6262033;28;20050;-82
2021/03/15 01:26:49;;;;;;;1.48;0.70;;;8.50;66.40;;;;;;6276802;28;20573;-82
2021/03/15 01:29:50;;;;;;;1.15;0.75;;;8.50;66.50;;;;;;6277316;28;20048;-83
2021/03/15 01:32:51;;;;;;;1.27;0.75;;;8.50;66.10;;;;;;6277566;28;20596;-84
2021/03/15 01:35:53;;;;;;;0.70;0.60;;;8.50;66.00;;;;;;6277444;28;20076;-83
2021/03/15 01:38:54;;;;;;;2.70;0.95;;;8.40;66.20;;;;;;6280390;28;20037;-81
2021/03/15 01:41:55;;;;;;;0.80;0.55;;;8.40;66.40;;;;;;6276723;28;20129;-84
2021/03/15 01:44:56;;;;;;;1.25;0.90;;;8.40;66.60;;;;;;6277103;28;20045;-83
2021/03/15 01:47:57;;;;;;;0.80;0.80;;;8.40;66.90;;;;;;6276943;28;20052;-81
2021/03/15 01:51:01;;;;;;;1.77;0.80;;;8.50;67.00;;;;;;6270746;28;20064;-82
2021/03/15 01:54:02;;;;;;;4.90;1.95;;;8.50;66.70;;;;;;6285259;28;20123;-83
2021/03/15 01:57:03;;;;;;;2.58;1.10;;;8.50;66.60;;;;;;6276320;28;20079;-82
2021/03/15 02:00:07;;;;;;;2.67;0.93;;;8.40;66.50;;;;;;6276169;28;20451;-83
2021/03/15 02:03:12;;;;;;;0.70;0.60;;;8.40;66.50;;;;;;6275770;28;20033;-83
2021/03/15 02:06:13;;;;;;;1.17;0.77;;;8.50;66.50;;;;;;6275149;28;20049;-82
2021/03/15 02:09:17;;;;;;;1.48;0.90;;;8.50;66.40;;;;;;6281919;28;20029;-81
2021/03/15 02:12:46;;;;;;;0.52;0.50;;;8.50;66.30;;;;;;6288839;28;20037;-82
2021/03/15 02:16:14;;;;;;;0.95;0.50;;;8.50;66.30;;;;;;6254476;28;20037;-83
2021/03/15 02:19:47;;;;;;;0.77;0.68;;;8.50;66.20;;;;;;6238531;28;20040;-84
2021/03/15 02:22:56;;;;;;;2.85;0.95;;;8.50;65.80;;;;;;6210034;28;20049;-82
2021/03/15 02:26:26;;;;;;;2.63;1.58;;;8.50;65.70;;;;;;6225883;28;20372;-83
2021/03/15 02:30:04;;;;;;;1.80;1.55;;;8.50;65.70;;;;;;6245041;28;20122;-83
2021/03/15 02:33:35;;;;;;;2.05;0.98;;;8.50;65.50;;;;;;6246674;28;20060;-84
2021/03/15 02:36:41;;;;;;;1.58;0.95;;;8.50;65.60;;;;;;6214787;28;20472;-81
2021/03/15 02:39:48;;;;;;;2.05;0.98;;;8.60;65.40;;;;;;6226776;28;20037;-85
2021/03/15 02:42:54;;;;;;;1.48;1.27;;;8.60;65.50;;;;;;6216113;28;20456;-85
2021/03/15 02:46:00;;;;;;;2.33;1.45;;;8.60;65.50;;;;;;6237613;28;20548;-83
2021/03/15 02:49:06;;;;;;;2.50;1.58;;;8.70;65.40;;;;;;6208188;28;20033;-83
2021/03/15 02:52:09;;;;;;;2.78;1.77;;;8.70;65.20;;;;;;6226991;28;20049;-83
2021/03/15 02:55:14;;;;;;;4.68;2.05;;;8.70;65.20;;;;;;6275403;28;20051;-81
2021/03/15 02:58:18;;;;;;;3.65;1.83;;;8.70;65.50;;;;;;6277539;28;20539;-82
2021/03/15 03:01:21;;;;;;;7.00;2.65;;;8.70;65.50;;;;;;6281011;28;20456;-82
2021/03/15 03:04:24;;;;;;;4.70;2.38;;;8.80;65.50;;;;;;6266267;28;20040;-82
2021/03/15 03:07:25;;;;;;;7.22;3.30;;;8.80;65.50;;;;;;6256516;28;20076;-82
2021/03/15 03:10:28;;;;;;;3.88;2.25;;;8.80;65.40;;;;;;6276661;28;20048;-82
2021/03/15 03:13:33;;;;;;;2.75;1.92;;;8.90;65.30;;;;;;6229332;28;20037;-81
2021/03/15 03:16:40;;;;;;;5.85;2.60;;;8.80;65.00;;;;;;6282442;28;20040;-82
2021/03/15 03:19:42;;;;;;;4.43;2.55;;;8.80;65.00;;;;;;6276993;28;20498;-81
2021/03/15 03:22:47;;;;;;;3.88;2.08;;;8.80;65.00;;;;;;6275537;28;20076;-82
2021/03/15 03:25:49;;;;;;;5.35;2.13;;;8.80;64.90;;;;;;6274835;28;20116;-82
2021/03/15 03:28:53;;;;;;;3.25;2.45;;;8.80;64.90;;;;;;6274031;28;20063;-82
2021/03/15 03:31:57;;;;;;;6.63;2.47;;;8.80;64.80;;;;;;6274181;28;20116;-82
2021/03/15 03:34:59;;;;;;;4.45;2.65;;;8.80;64.90;;;;;;6285097;28;20049;-82
2021/03/15 03:38:00;;;;;;;6.53;2.67;;;8.90;65.00;;;;;;6257606;28;20376;-82
2021/03/15 03:41:01;;;;;;;5.72;2.63;;;8.90;64.90;;;;;;6274320;28;20030;-82
2021/03/15 03:44:03;;;;;;;7.53;3.28;;;8.90;64.80;;;;;;6273996;28;20029;-82
2021/03/15 03:47:07;;;;;;;3.05;2.00;;;8.90;64.70;;;;;;6256800;28;20037;-83
2021/03/15 03:50:15;;;;;;;3.08;1.98;;;8.90;64.80;;;;;;6273499;28;20033;-83
2021/03/15 03:53:40;;;;;;;3.47;2.13;;;8.90;65.10;;;;;;6274012;28;20341;-82
2021/03/15 03:57:05;;;;;;;6.35;2.65;;;8.80;65.30;;;;;;6272995;28;20056;-82
2021/03/15 04:00:13;;;;;;;6.38;2.95;;;8.70;65.50;;;;;;6256883;28;20037;-82
2021/03/15 04:03:19;;;;;;;6.75;3.17;;;8.60;65.90;;;;;;6273442;28;20029;-81
2021/03/15 04:06:24;;;;;;;6.15;3.13;;;8.50;66.40;;;;;;6272513;28;20162;-82
2021/03/15 04:09:59;;;;;;;5.00;2.60;;;8.50;66.70;;;;;;6269852;28;20041;-83
2021/03/15 04:13:10;;;;;;;10.25;4.07;;;8.50;66.80;;;;;;6269793;28;20094;-82
2021/03/15 04:16:13;;;;;;;12.07;3.55;;;8.60;67.20;;;;;;6288548;28;20372;-81
2021/03/15 04:19:18;;;;;;;6.53;3.08;;;8.60;67.10;;;;;;6271531;28;20037;-81
2021/03/15 04:22:23;;;;;;;5.75;3.28;;;8.70;67.30;;;;;;6266137;28;20130;-82
2021/03/15 04:25:30;;;;;;;5.63;3.10;;;8.70;67.10;;;;;;6243342;28;20040;-84
2021/03/15 04:28:35;;;;;;;8.52;3.38;;;8.80;67.20;;;;;;6274181;28;20111;-83
2021/03/15 04:31:36;;;;;;;4.95;3.10;;;8.80;67.10;;;;;;6263012;28;20037;-82
2021/03/15 04:34:38;;;;;;;8.27;3.17;;;8.90;67.00;;;;;;6267548;28;20130;-82
2021/03/15 04:37:41;;;;;;;5.30;3.00;;;8.90;66.90;;;;;;6267792;28;20359;-82
2021/03/15 04:40:48;;;;;;;5.90;3.60;;;8.90;66.90;;;;;;6249777;28;20044;-83
2021/03/15 04:43:49;;;;;;;6.97;3.47;;;8.90;66.90;;;;;;6260712;28;20029;-82
2021/03/15 04:46:52;;;;;;;5.45;2.63;;;8.90;66.80;;;;;;6269523;28;20025;-82
2021/03/15 04:49:54;;;;;;;6.38;3.42;;;8.90;66.90;;;;;;6270303;28;20455;-83
2021/03/15 04:52:56;;;;;;;5.18;2.65;;;8.80;67.00;;;;;;6265533;28;20148;-83
2021/03/15 04:56:01;;;;;;;8.43;3.20;;;8.90;67.20;;;;;;6266055;28;20029;-83
2021/03/15 04:59:03;;;;;;;4.78;2.78;;;8.90;67.20;;;;;;6252968;28;20041;-83
2021/03/15 05:02:06;;;;;;;6.38;3.92;;;8.80;67.00;;;;;;6268291;28;20048;-82
2021/03/15 05:05:09;;;;;;;5.53;3.35;;;8.90;67.20;;;;;;6268125;28;20060;-83
2021/03/15 05:08:15;;;;;;;5.55;3.15;;;8.80;67.10;;;;;;6275365;28;20040;-83
2021/03/15 05:11:19;;;;;;;8.50;3.20;;;8.80;67.20;;;;;;6251169;28;20029;-81
2021/03/15 05:14:20;;;;;;;5.78;3.00;;;8.80;67.20;;;;;;6270965;28;20029;-82
2021/03/15 05:17:21;;;;;;;5.32;3.00;;;8.80;67.20;;;;;;6270507;28;20049;-81
2021/03/15 05:20:24;;;;;;;5.13;3.20;;;8.80;67.20;;;;;;6270719;28;20029;-82
2021/03/15 05:23:26;;;;;;;5.65;3.50;;;8.80;67.20;;;;;;6269394;28;20037;-81
2021/03/15 05:26:28;;;;;;;8.90;3.97;;;8.80;67.20;;;;;;6269914;28;20435;-81
2021/03/15 05:29:32;;;;;;;8.05;3.63;;;8.80;67.30;;;;;;6244581;28;20140;-82
2021/03/15 05:32:36;;;;;;;6.57;3.70;;;8.80;67.30;;;;;;6270053;28;20368;-82
2021/03/15 05:35:37;;;;;;;7.47;3.35;;;8.80;67.40;;;;;;6270481;28;20465;-82
2021/03/15 05:38:39;;;;;;;6.43;3.88;;;8.80;67.60;;;;;;6277712;28;20037;-81
2021/03/15 05:41:58;;;;;;;8.48;3.35;;;8.80;67.70;;;;;;6261917;28;20040;-84
2021/03/15 05:45:13;;;;;;;4.97;3.00;;;8.70;67.70;;;;;;6252368;28;20038;-83
2021/03/15 05:48:43;;;;;;;6.93;3.80;;;8.70;67.80;;;;;;6249815;28;20034;-88
2021/03/15 05:51:50;;;;;;;9.13;4.15;;;8.70;68.10;;;;;;6262681;28;20099;-86
2021/03/15 05:55:10;;;;;;;11.95;4.60;;;8.90;68.30;;;;;;6241003;28;20041;-85
2021/03/15 05:58:45;;;;;;;6.82;3.65;;;8.80;68.30;;;;;;6232463;28;20041;-88
2021/03/15 06:02:10;;;;;;;8.15;4.22;;;8.80;68.30;;;;;;6252922;28;20072;-86
2021/03/15 06:05:24;;;;;;;10.02;3.80;;;8.90;68.20;;;;;;6261872;28;20048;-86
2021/03/15 06:08:35;;;;;;;6.63;3.63;;;8.90;68.10;;;;;;6253004;28;20049;-88
2021/03/15 06:12:04;;;;;;;10.25;4.32;;;8.90;67.90;;;;;;6225765;28;20542;-88
2021/03/15 06:15:10;;;;;;;5.85;3.20;;;8.90;68.00;;;;;;6242193;28;20160;-89
2021/03/15 06:18:14;;;;;;;6.57;3.53;;;9.00;67.90;;;;;;6201780;28;20044;-88
2021/03/15 06:21:15;;;;;;;3.40;2.20;;;9.00;67.80;;;;;;6261203;28;20459;-81
2021/03/15 06:24:20;;;;;;;7.25;3.53;;;9.00;67.70;;;;;;6270211;28;20053;-88
2021/03/15 06:27:21;;;;;;;7.15;3.83;;;9.10;67.50;;;;;;6267494;28;20044;-86
2021/03/15 06:30:28;;;;;;;9.05;3.30;;;9.10;67.40;;;;;;6286688;28;20484;-86
2021/03/15 06:33:30;;;;;;;6.07;2.88;;;9.10;67.30;;;;;;6266951;28;20040;-88
2021/03/15 06:36:43;;;;;;;7.53;2.58;;;9.10;67.20;;;;;;6291299;28;20049;-89
2021/03/15 06:39:45;;;;;;;4.20;1.70;;;9.10;66.90;;;;;;6240318;28;20045;-90
2021/03/15 06:42:52;;;;;;;3.88;2.03;;;9.10;66.00;;;;;;6242837;28;20033;-88
2021/03/15 06:45:55;;;;;;;4.60;1.60;;;9.10;65.80;;;;;;6226914;28;20039;-86
2021/03/15 06:48:56;;;;;;;4.80;1.80;;;9.00;65.20;;;;;;6261248;28;20055;-86
2021/03/15 06:52:20;;;;;;;4.18;1.63;;;8.90;65.00;;;;;;6259994;28;20029;-88
2021/03/15 06:55:31;;;;;;;2.05;1.45;;;8.90;65.10;;;;;;6266886;28;20582;-86
2021/03/15 06:58:32;;;;;;;3.60;1.75;;;8.90;65.20;;;;;;6265269;28;20048;-88
2021/03/15 07:01:52;;;;;;;4.07;1.92;;;9.00;65.10;;;;;;6274403;28;20413;-88
2021/03/15 07:05:09;;;;;;;3.03;2.00;;;9.00;65.70;;;;;;6273677;28;20063;-88
2021/03/15 07:08:18;;;;;;;6.53;1.83;;;9.00;64.80;;;;;;6252189;28;20036;-89
2021/03/15 07:11:23;;;;;;;4.65;1.80;;;9.00;64.70;;;;;;6267360;28;20132;-88
2021/03/15 07:14:25;;;;;;;6.10;1.48;;;9.00;64.90;;;;;;6255766;28;20076;-88
2021/03/15 07:17:27;;;;;;;8.48;1.73;;;9.00;65.10;;;;;;6270661;28;20033;-86
2021/03/15 07:20:51;;;;;;;7.88;2.05;;;9.00;65.30;;;;;;6236125;28;20049;-87
2021/03/15 07:23:55;;;;;;;2.55;1.65;;;9.00;65.70;;;;;;6230271;28;20025;-86
2021/03/15 07:26:56;;;;;;;2.95;1.77;;;9.00;65.70;;;;;;6231225;28;20119;-86
2021/03/15 07:30:37;;;;;;;3.67;1.40;;;8.90;65.70;;;;;;6242699;28;20029;-86
2021/03/15 07:33:38;;;;;;;5.97;2.10;;;8.90;65.80;;;;;;6258274;28;20037;-86
2021/03/15 07:36:55;;;;;;;4.55;1.60;;;8.90;65.70;;;;;;6230862;28;20055;-86
2021/03/15 07:39:56;;;;;;;5.47;2.42;;;8.90;65.70;;;;;;6255071;28;20044;-86
2021/03/15 07:42:59;;;;;;;4.25;1.50;;;8.80;65.70;;;;;;6247026;28;20044;-87
2021/03/15 07:46:26;;;;;;;2.35;1.50;;;8.80;65.70;;;;;;6235834;28;20041;-88
2021/03/15 07:49:37;;;;;;;3.25;1.85;;;8.80;65.80;;;;;;6244025;28;20087;-87
2021/03/15 07:52:41;;;;;;;4.15;1.60;;;9.00;65.90;;;;;;6290617;28;20106;-88
2021/03/15 07:55:42;;;;;;;4.75;2.38;;;8.80;65.70;;;;;;6253468;28;20040;-87
2021/03/15 07:58:44;;;;;;;2.05;1.10;;;8.80;65.70;;;;;;6247203;28;20093;-86
2021/03/15 08:01:49;;;;;;;4.05;1.45;;;8.80;65.70;;;;;;6241235;28;20067;-85
2021/03/15 08:04:52;;;;;;;5.57;2.17;;;8.60;65.50;;;;;;6268428;28;20067;-88
2021/03/15 08:07:53;;;;;;;4.53;1.40;;;8.90;65.70;;;;;;6272644;28;20418;-88
2021/03/15 08:11:01;;;;;;;2.88;1.60;;;8.90;65.70;;;;;;6274909;28;20121;-88
2021/03/15 08:14:03;;;;;;;2.90;1.52;;;9.00;65.80;;;;;;6250819;28;20056;-88
2021/03/15 08:17:07;;;;;;;3.53;1.40;;;9.00;65.60;;;;;;6272384;28;20075;-86
2021/03/15 08:20:09;;;;;;;4.82;1.67;;;9.00;65.60;;;;;;6251396;28;20036;-86
2021/03/15 08:23:16;;;;;;;3.35;1.58;;;9.10;65.70;;;;;;6269464;28;20048;-86
2021/03/15 08:26:18;;;;;;;4.65;1.65;;;9.10;65.60;;;;;;6269542;28;20039;-88
2021/03/15 08:29:20;;;;;;;4.30;1.42;;;9.20;65.60;;;;;;6272897;28;20047;-86
2021/03/15 08:32:21;;;;;;;4.28;1.45;;;9.20;65.40;;;;;;6291182;28;20041;-87
2021/03/15 08:35:23;;;;;;;2.95;1.70;;;9.20;65.20;;;;;;6272425;28;20384;-86
2021/03/15 08:38:32;;;;;;;1.92;1.67;;;9.20;65.30;;;;;;6269439;28;20113;-86
2021/03/15 08:41:33;;;;;;;6.25;1.42;;;9.20;65.30;;;;;;6269645;28;20044;-85
2021/03/15 08:44:42;;;;;;;3.00;1.45;;;9.20;65.30;;;;;;6256994;28;20401;-86
2021/03/15 08:47:49;;;;;;;2.85;1.60;;;9.10;65.30;;;;;;6248192;28;20482;-86
2021/03/15 08:50:54;;;;;;;4.05;1.67;;;9.20;65.50;;;;;;6271256;28;20029;-85
2021/03/15 08:53:55;;;;;;;8.20;2.53;;;9.10;65.40;;;;;;6271701;28;20049;-87
2021/03/15 08:56:56;;;;;;;3.47;1.63;;;9.20;65.40;;;;;;6271596;28;20417;-86
2021/03/15 08:59:58;;;;;;;4.72;1.60;;;9.10;65.30;;;;;;6258542;28;20048;-87
2021/03/15 09:03:02;;;;;;;3.10;1.58;;;9.10;65.30;;;;;;6271237;28;20680;-87
2021/03/15 09:06:03;;;;;;;4.93;2.08;;;9.10;65.40;;;;;;6257691;28;20055;-88
2021/03/15 09:09:09;;;;;;;4.65;1.50;;;9.10;65.40;;;;;;6255252;28;20033;-87
2021/03/15 09:12:19;;;;;;;3.88;1.65;;;9.10;65.50;;;;;;6269885;28;20061;-88
2021/03/15 09:15:34;;;;;;;2.22;1.25;;;8.90;65.40;;;;;;6271941;28;20094;-87
2021/03/15 09:18:38;;;;;;;5.40;1.98;;;9.00;65.50;;;;;;6271142;28;20076;-86
2021/03/15 09:21:42;;;;;;;9.68;2.22;;;9.00;65.60;;;;;;6272759;28;20162;-87
2021/03/15 09:24:49;;;;;;;5.57;1.85;;;8.80;66.30;;;;;;6270026;28;20040;-88
2021/03/15 09:27:53;;;;;;;2.97;1.20;;;8.90;65.70;;;;;;6271067;28;20033;-85
2021/03/15 09:31:08;;;;;;;3.22;1.20;;;8.90;65.90;;;;;;6237865;28;20052;-87
2021/03/15 09:34:10;;;;;;;2.95;1.70;;;9.00;66.00;;;;;;6239171;28;20151;-85
2021/03/15 09:37:41;;;;;;;;;;;;;;;;;;;;;
2021/03/15 09:40:49;;;;;;;2.50;1.85;;;8.90;65.90;;;;;;6226471;28;20039;-85
2021/03/15 09:43:51;;;;;;;4.13;1.67;;;9.00;66.10;;;;;;6248833;28;20044;-86
2021/03/15 09:46:54;;;;;;;3.20;1.40;;;9.00;66.00;;;;;;6258554;28;20307;-85
2021/03/15 09:49:56;;;;;;;3.50;1.52;;;9.00;65.80;;;;;;6269068;28;20119;-86
2021/03/15 09:53:14;;;;;;;2.72;1.55;;;9.00;65.70;;;;;;6274113;28;20379;-85
2021/03/15 09:56:40;;;;;;;4.05;1.30;;;9.00;65.70;;;;;;6148856;28;20042;-86
2021/03/15 10:00:15;;;;;;;3.97;1.42;;;9.00;65.50;;;;;;6159625;28;20035;-86
2021/03/15 10:03:31;;;;;;;2.63;1.27;;;8.90;65.60;;;;;;6156693;28;20042;-85
2021/03/15 10:06:45;;;;;;;1.55;1.05;;;8.80;65.60;;;;;;6176809;28;20050;-85
2021/03/15 10:10:51;;;;;;;1.30;1.00;;;8.90;66.00;;;;;;6046150;28;20033;-84
2021/03/15 10:14:13;;;;;;;1.88;1.25;;;8.70;65.90;;;;;;6013205;29;20049;-87
2021/03/15 10:17:33;;;;;;;1.45;1.10;;;8.60;65.70;;;;;;6034798;29;20041;-85
2021/03/15 10:20:55;;;;;;;3.20;1.70;;;8.60;66.10;;;;;;6042791;29;20049;-86
2021/03/15 10:24:04;;;;;;;2.35;1.35;;;8.60;66.10;;;;;;6040234;29;20041;-85
2021/03/15 10:27:19;;;;;;;2.00;1.38;;;8.60;65.90;;;;;;6039851;29;20124;-85
2021/03/15 10:30:26;;;;;;;2.15;0.93;;;8.60;65.90;;;;;;6032110;29;20120;-87
2021/03/15 10:33:29;;;;;;;1.57;1.00;;;8.60;66.20;;;;;;6078272;29;20043;-87
2021/03/15 10:36:31;;;;;;;4.53;0.80;;;8.50;66.10;;;;;;6118839;29;20130;-86
2021/03/15 10:39:54;;;;;;;1.50;1.00;;;8.70;66.20;;;;;;6121643;29;20032;-87
2021/03/15 10:43:00;;;;;;;1.38;0.90;;;8.50;66.40;;;;;;6107632;29;20162;-86
2021/03/15 10:46:18;;;;;;;1.10;0.88;;;8.50;66.30;;;;;;6141181;28;21430;-85
2021/03/15 10:49:26;;;;;;;2.80;1.00;;;8.50;66.40;;;;;;6223447;28;20037;-85
2021/03/15 10:52:35;;;;;;;2.55;1.63;;;8.50;66.40;;;;;;6222733;28;20074;-84
2021/03/15 10:55:43;;;;;;;1.60;0.88;;;8.50;66.50;;;;;;6241933;28;20050;-87
2021/03/15 10:58:50;;;;;;;0.50;0.50;;;8.50;66.70;;;;;;6250946;28;20032;-85
2021/03/15 11:01:57;;;;;;;1.17;0.82;;;8.50;66.80;;;;;;6253602;28;20081;-86
2021/03/15 11:05:04;;;;;;;6.45;1.05;;;8.40;66.80;;;;;;6253275;28;20062;-86
2021/03/15 11:08:20;;;;;;;0.25;0.25;;;8.30;66.80;;;;;;6249498;28;20029;-86
2021/03/15 11:11:24;;;;;;;1.15;0.43;;;8.30;67.10;;;;;;6274453;28;20112;-85
2021/03/15 11:15:11;;;;;;;0.40;0.40;;;8.30;67.10;;;;;;6259261;28;20033;-84
2021/03/15 11:18:21;;;;;;;0.57;0.47;;;8.20;67.00;;;;;;6266236;28;20053;-86
2021/03/15 11:21:26;;;;;;;1.05;0.70;;;8.10;66.90;;;;;;6238908;28;20044;-86
2021/03/15 11:24:43;;;;;;;2.00;0.50;;;8.10;67.10;;;;;;6252187;28;20047;-85
2021/03/15 11:27:50;;;;;;;1.55;0.63;;;8.10;67.30;;;;;;6261479;28;21961;-84
2021/03/15 11:30:55;;;;;;;2.25;1.10;;;8.00;67.40;;;;;;6284747;28;20126;-84
2021/03/15 11:34:02;;;;;;;1.35;1.00;;;8.10;67.60;;;;;;6300372;28;20029;-84
2021/03/15 11:37:15;;;;;;;2.13;1.15;;;8.10;67.60;;;;;;6260857;28;20376;-86
2021/03/15 11:40:44;;;;;;;1.27;1.13;;;8.20;67.50;;;;;;6247370;28;20548;-87
2021/03/15 11:44:02;;;;;;;;;;;;;;;;;;;;;
2021/03/15 11:47:19;;;;;;;;;;;;;;;;;;;;;
2021/03/15 11:50:58;;;;;;;1.45;0.85;;;8.30;67.10;;;;;;6142185;28;20034;-87
2021/03/15 11:54:10;;;;;;;1.67;0.80;;;8.30;67.20;;;;;;6235889;28;20186;-86
2021/03/15 11:57:21;;;;;;;;;;;;;;;;;;;;;
2021/03/15 12:00:42;;;;;;;1.27;0.73;;;8.30;67.20;;;;;;6165843;28;20037;-89
2021/03/15 12:05:14;;;;;;;;;;;;;;;;;;;;;
2021/03/15 12:08:30;;;;;;;2.58;1.40;;;8.40;67.20;;;;;;6217511;28;20044;-88
2021/03/15 12:11:54;;;;;;;1.20;0.52;;;8.50;67.00;;;;;;6198815;28;20033;-90
2021/03/15 12:15:27;;;;;;;4.32;1.58;;;8.60;66.60;;;;;;6166550;28;20053;-90
2021/03/15 12:18:31;;;;;;;1.38;1.00;;;8.70;66.60;;;;;;6116285;28;20117;-90
2021/03/15 12:21:38;;;;;;;3.28;1.90;;;8.80;66.70;;;;;;6175497;28;20037;-90
2021/03/15 12:29:38;;;;;;;3.00;1.63;;;9.00;66.30;;;;;;5973995;29;20070;-89
2021/03/15 12:46:36;;;;;;;1.40;1.13;;;9.10;66.40;;;;;;7611237;22;3616735;-85
2021/03/15 12:50:03;;;;;;;2.67;1.23;;;9.30;66.10;;;;;;7702384;23;20012;-85
2021/03/15 12:53:16;;;;;;;1.80;1.20;;;9.10;66.00;;;;;;7532358;23;20083;-86
2021/03/15 12:56:34;;;;;;;2.10;1.52;;;9.20;66.20;;;;;;7736973;23;20015;-86
2021/03/15 12:59:35;;;;;;;3.20;1.63;;;9.10;66.40;;;;;;7677178;23;20066;-85
2021/03/15 13:02:48;;;;;;;2.58;1.85;;;9.20;66.30;;;;;;7656087;23;20067;-85
2021/03/15 13:05:49;;;;;;;2.53;1.27;;;9.20;66.40;;;;;;7678881;23;20004;-84
2021/03/15 13:09:14;;;;;;;2.58;1.15;;;9.20;66.50;;;;;;7724132;23;20004;-84
2021/03/15 13:12:25;;;;;;;5.78;1.70;;;9.10;66.60;;;;;;7682221;23;20129;-86
2021/03/15 13:15:38;;;;;;;4.72;2.00;;;9.10;66.80;;;;;;7730759;23;20023;-85
2021/03/15 13:18:59;;;;;;;3.85;1.75;;;9.20;66.90;;;;;;7720909;23;20008;-85
2021/03/15 13:22:02;;;;;;;3.30;1.70;;;9.20;67.00;;;;;;7701103;23;20360;-85
2021/03/15 13:25:09;;;;;;;3.75;2.08;;;9.20;67.10;;;;;;7695224;23;20020;-85
2021/03/15 13:28:12;;;;;;;2.92;2.10;;;9.20;66.90;;;;;;7664965;23;20019;-88
2021/03/15 13:31:14;;;;;;;4.85;1.85;;;9.20;66.90;;;;;;7656839;23;20015;-87
2021/03/15 13:34:15;;;;;;;4.10;2.10;;;9.20;67.20;;;;;;7688642;23;20015;-86
2021/03/15 13:37:17;;;;;;;3.58;1.90;;;9.20;67.30;;;;;;7726273;23;20015;-86
2021/03/15 13:40:41;;;;;;;8.73;2.30;;;9.20;67.40;;;;;;7715263;23;20269;-88
2021/03/15 13:43:56;;;;;;;3.03;2.10;;;9.20;67.40;;;;;;7710648;23;20012;-86
2021/03/15 13:47:02;;;;;;;2.55;1.95;;;9.20;67.20;;;;;;7719169;23;20374;-88
2021/03/15 13:50:05;;;;;;;1.95;1.75;;;9.30;67.30;;;;;;7702798;23;20031;-87
2021/03/15 13:53:07;;;;;;;3.22;1.88;;;9.30;67.30;;;;;;7658466;23;20019;-88
2021/03/15 13:56:09;;;;;;;3.13;1.88;;;9.30;67.40;;;;;;7695098;23;20005;-87
2021/03/15 13:59:21;;;;;;;3.05;1.90;;;9.20;67.40;;;;;;7679245;23;20023;-87
2021/03/15 14:02:23;;;;;;;4.18;1.95;;;9.30;67.80;;;;;;7680487;23;20022;-85
2021/03/15 14:05:25;;;;;;;2.92;2.25;;;9.40;67.70;;;;;;7665636;23;20028;-85
2021/03/15 14:08:28;;;;;;;3.67;2.38;;;9.50;67.60;;;;;;7699727;23;20016;-85
2021/03/15 14:11:29;;;;;;;4.03;2.33;;;9.60;67.30;;;;;;7685867;23;20016;-85
2021/03/15 14:14:35;;;;;;;3.72;2.40;;;9.70;67.20;;;;;;7700103;23;20030;-85
2021/03/15 14:17:41;;;;;;;4.40;2.15;;;9.70;66.90;;;;;;7701834;23;20070;-85
2021/03/15 14:20:42;;;;;;;4.28;2.33;;;9.80;66.90;;;;;;7700065;23;20016;-86
2021/03/15 14:23:44;;;;;;;4.95;2.20;;;9.80;66.70;;;;;;7702527;23;20020;-88
2021/03/15 14:26:47;;;;;;;3.40;1.88;;;9.80;66.50;;;;;;7676041;23;20013;-85
2021/03/15 14:29:51;;;;;;;2.90;1.70;;;9.80;66.40;;;;;;7688073;23;20016;-87
2021/03/15 14:32:55;;;;;;;6.30;2.40;;;9.80;66.70;;;;;;7701831;23;20126;-87
2021/03/15 14:36:05;;;;;;;5.80;2.13;;;9.90;66.40;;;;;;7671533;23;20016;-89
2021/03/15 14:39:21;;;;;;;;;;;10.00;66.40;;;;;;7730339;23;20024;-85
2021/03/15 14:42:26;;;;;;;3.17;2.20;;;10.20;66.30;;;;;;7705126;23;19918;-89
2021/03/15 14:45:56;;;;;;;3.80;2.00;;;10.30;65.70;;;;;;7694584;23;20444;-87
2021/03/15 14:49:11;;;;;;;3.13;2.13;;;10.40;65.30;;;;;;7673015;23;20138;-87
2021/03/15 14:52:16;;;;;;;5.88;3.28;;;10.50;64.80;;;;;;7693872;23;20060;-86
2021/03/15 14:55:19;;;;;;;4.57;2.40;;;10.40;64.70;;;;;;7709957;23;20020;-86
2021/03/15 14:58:27;;;;;;;4.00;2.10;;;10.40;64.80;;;;;;7706913;23;20085;-86
2021/03/15 15:01:32;;;;;;;9.23;2.83;;;10.30;65.70;;;;;;7737888;23;20031;-86
2021/03/15 15:04:49;;;;;;;7.43;2.70;;;10.30;65.00;;;;;;7732938;23;20016;-88
2021/03/15 15:07:56;;;;;;;11.13;2.70;;;10.30;65.10;;;;;;7695460;23;20012;-88
2021/03/15 15:11:17;;;;;;;6.43;2.60;;;10.20;65.20;;;;;;7708314;23;20032;-88
2021/03/15 15:14:21;;;;;;;6.55;2.47;;;10.10;65.30;;;;;;7664040;23;20027;-88
2021/03/15 15:17:22;;;;;;;4.20;2.78;;;10.10;65.50;;;;;;7657484;23;20031;-87
2021/03/15 15:20:24;;;;;;;5.07;2.30;;;10.00;65.80;;;;;;7706414;23;20308;-88
2021/03/15 15:23:28;;;;;;;6.47;2.60;;;10.00;66.30;;;;;;7716405;23;20009;-87
2021/03/15 15:26:31;;;;;;;6.40;3.03;;;9.80;66.40;;;;;;7688902;23;20056;-88
2021/03/15 15:29:32;;;;;;;3.80;2.50;;;9.80;66.90;;;;;;7681479;23;20030;-88
2021/03/15 15:32:34;;;;;;;6.10;3.53;;;9.80;67.10;;;;;;7673274;23;20019;-88
2021/03/15 15:35:35;;;;;;;6.90;3.50;;;9.70;67.30;;;;;;7690117;23;20496;-88
2021/03/15 15:38:40;;;;;;;4.38;2.72;;;9.70;67.50;;;;;;7697190;23;20020;-87
2021/03/15 15:41:42;;;;;;;6.78;3.13;;;9.60;67.90;;;;;;7675830;23;20563;-87
2021/03/15 15:44:44;;;;;;;4.38;2.90;;;9.60;68.20;;;;;;7662511;23;20041;-88
2021/03/15 15:47:47;;;;;;;5.00;3.00;;;9.70;68.70;;;;;;7659015;23;21401;-87
2021/03/15 15:50:49;;;;;;;5.75;3.00;;;9.60;68.70;;;;;;7685402;23;20012;-85
2021/03/15 15:54:03;;;;;;;4.63;2.97;;;9.60;68.90;;;;;;7723297;23;20177;-86
2021/03/15 15:57:05;;;;;;;5.30;3.00;;;9.60;69.00;;;;;;7704543;23;20016;-88
2021/03/15 16:00:09;;;;;;;5.30;3.47;;;9.60;69.10;;;;;;7674935;23;20035;-87
2021/03/15 16:03:13;;;;;;;4.03;3.00;;;9.60;69.20;;;;;;7732534;23;20426;-87
2021/03/15 16:06:14;;;;;;;3.47;2.28;;;9.60;70.10;;;;;;7715694;23;20046;-87
2021/03/15 16:09:19;;;;;;;6.07;3.60;;;9.70;69.30;;;;;;7706006;23;20293;-87
2021/03/15 16:12:20;;;;;;;6.05;3.28;;;9.70;69.20;;;;;;7708615;23;20012;-88
2021/03/15 16:15:22;;;;;;;3.55;2.45;;;9.70;69.20;;;;;;7670758;23;20028;-86
2021/03/15 16:18:23;;;;;;;5.15;3.53;;;9.80;69.20;;;;;;7702804;23;20020;-88
2021/03/15 16:21:24;;;;;;;7.50;3.33;;;9.90;69.10;;;;;;7699836;23;20016;-87
2021/03/15 16:24:26;;;;;;;4.22;2.67;;;10.00;68.90;;;;;;7756434;23;20293;-88
2021/03/15 16:27:27;;;;;;;3.63;2.42;;;10.00;68.70;;;;;;7684885;23;20017;-86
2021/03/15 16:30:30;;;;;;;3.63;2.33;;;10.10;68.30;;;;;;7724595;23;20027;-85
2021/03/15 16:33:31;;;;;;;3.50;2.45;;;10.10;68.20;;;;;;7727494;23;20016;-86
2021/03/15 16:36:33;;;;;;;2.85;1.95;;;10.10;67.90;;;;;;7728578;23;20013;-86
2021/03/15 16:39:35;;;;;;;5.50;2.08;;;10.10;67.90;;;;;;7687649;23;20046;-87
2021/03/15 16:42:36;;;;;;;2.60;1.80;;;10.10;67.70;;;;;;7687946;23;20004;-84
2021/03/15 16:45:38;;;;;;;5.68;3.08;;;10.20;67.50;;;;;;7752328;23;20020;-87
2021/03/15 16:48:41;;;;;;;3.17;1.80;;;10.10;67.20;;;;;;7727016;23;20024;-87
2021/03/15 16:51:42;;;;;;;5.10;2.75;;;10.20;67.30;;;;;;7706305;23;20016;-86
2021/03/15 16:54:44;;;;;;;5.57;3.15;;;10.10;67.00;;;;;;7661891;23;20059;-86
2021/03/15 16:57:49;;;;;;;5.53;2.97;;;10.10;67.10;;;;;;7682536;23;20012;-83